Somersville, Connecticut
Current Conditions -  °F | °C
As of 9:51 PM on Friday 28 Nov 2014 (Local Time) from KBDL Reporting Station
Clear Clear  
Wind Chill: 26°   Ceiling: Unl
Heat Index: 26°   Visibility: 10mi
Dew Point: 12°   Wind: 0mph
Humidity: 55%   Direction: NA
Pressure: 30.23"   Gusts: NA
Location:  41.98°N, 72.49°W
Report Text: KBDL 290251Z 00000KT 10SM CLR M03/M11 A3023 RMK AO2 SLP237 T10331111 53009
Loading
Personal Weather Stations






























Interactive Weather Map New forecast layout! Learn more

10-Day Weather Forecast

Advertisements
Track Severe Weather on mobile